createdAt,value
2019-06-10T00:00:13.528Z,14.20
2019-06-10T00:02:43.373Z,14.10
2019-06-10T00:05:14.453Z,14.20
2019-06-10T00:07:45.351Z,14.40
2019-06-10T00:10:16.731Z,14.30
2019-06-10T00:12:51.273Z,14.20
2019-06-10T00:15:21.916Z,14.30
2019-06-10T00:18:13.173Z,14.30
2019-06-10T00:20:25.566Z,14.20
2019-06-10T00:22:57.470Z,14.20
2019-06-10T00:25:28.590Z,14.10
2019-06-10T00:28:00.555Z,14.00
2019-06-10T00:30:32.220Z,14.00
2019-06-10T00:33:04.415Z,14.00
2019-06-10T00:35:35.945Z,14.00
2019-06-10T00:38:08.867Z,13.90
2019-06-10T00:40:41.535Z,14.00
2019-06-10T00:43:13.594Z,14.00
2019-06-10T00:45:44.750Z,14.00
2019-06-10T00:48:25.311Z,14.30
2019-06-10T00:50:48.399Z,14.30
2019-06-10T00:53:21.202Z,14.10
2019-06-10T00:55:53.042Z,13.90
2019-06-10T00:58:23.992Z,13.90
2019-06-10T01:00:54.976Z,13.80
2019-06-10T01:03:26.923Z,13.80
2019-06-10T01:05:57.919Z,14.00
2019-06-10T01:08:28.864Z,14.10
2019-06-10T01:11:04.139Z,14.20
2019-06-10T01:13:32.480Z,14.10
2019-06-10T01:16:03.666Z,14.10
2019-06-10T01:18:38.464Z,13.90
2019-06-10T01:21:07.921Z,13.70
2019-06-10T01:23:38.918Z,13.80
2019-06-10T01:26:12.995Z,14.20
2019-06-10T01:28:42.557Z,14.20
2019-06-10T01:31:19.127Z,14.30
2019-06-10T01:33:46.172Z,14.20
2019-06-10T01:36:18.241Z,14.10
2019-06-10T01:38:51.148Z,14.10
2019-06-10T01:41:22.349Z,14.20
2019-06-10T01:43:53.306Z,14.20
2019-06-10T01:46:24.304Z,14.30
2019-06-10T01:48:55.254Z,14.40
2019-06-10T01:51:26.231Z,14.30
2019-06-10T01:53:57.277Z,14.10
2019-06-10T01:56:28.259Z,13.90
2019-06-10T01:59:01.346Z,13.80
2019-06-10T02:01:36.479Z,13.80
2019-06-10T02:04:08.256Z,14.00
2019-06-10T02:06:40.620Z,13.90
2019-06-10T02:09:13.866Z,14.10
2019-06-10T02:11:44.291Z,14.40
2019-06-10T02:14:17.840Z,14.30
2019-06-10T02:16:48.007Z,14.30
2019-06-10T02:19:20.776Z,14.30
2019-06-10T02:21:51.636Z,14.40
2019-06-10T02:24:23.561Z,14.40
2019-06-10T02:26:54.669Z,14.30
2019-06-10T02:29:25.649Z,14.30
2019-06-10T02:31:56.711Z,14.30
2019-06-10T02:34:28.600Z,14.40
2019-06-10T02:36:59.800Z,14.80
2019-06-10T02:39:35.149Z,14.80
2019-06-10T02:42:05.087Z,14.60
2019-06-10T02:44:37.607Z,14.50
2019-06-10T02:47:08.939Z,14.30
2019-06-10T02:49:52.636Z,14.10
2019-06-10T02:52:22.390Z,14.20
2019-06-10T02:54:53.575Z,14.30
2019-06-10T02:57:30.451Z,14.30
2019-06-10T02:59:56.286Z,14.40
2019-06-10T03:02:31.889Z,14.50
2019-06-10T03:05:00.004Z,14.30
2019-06-10T03:07:34.620Z,14.20
2019-06-10T03:10:05.101Z,14.30
2019-06-10T03:12:37.075Z,14.30
2019-06-10T03:15:08.757Z,14.20
2019-06-10T03:17:39.708Z,14.20
2019-06-10T03:20:12.294Z,14.10
2019-06-10T03:22:43.436Z,14.00
2019-06-10T03:25:14.413Z,14.00
2019-06-10T03:27:45.371Z,14.00
2019-06-10T03:30:22.036Z,14.10
2019-06-10T03:32:48.995Z,14.10
2019-06-10T03:35:21.812Z,14.10
2019-06-10T03:37:52.840Z,14.20
2019-06-10T03:40:25.933Z,14.20
2019-06-10T03:42:56.497Z,14.20
2019-06-10T03:45:28.541Z,14.30
2019-06-10T03:47:59.618Z,14.30
2019-06-10T03:50:32.477Z,14.30
2019-06-10T03:53:04.340Z,14.50
2019-06-10T03:55:35.552Z,14.30
2019-06-10T03:58:06.501Z,14.50
2019-06-10T04:00:37.489Z,14.50
2019-06-10T04:03:08.437Z,14.40
2019-06-10T04:05:39.428Z,14.40
2019-06-10T04:08:12.457Z,14.40
2019-06-10T04:10:43.083Z,14.40
2019-06-10T04:13:14.094Z,14.40
2019-06-10T04:15:45.077Z,14.50
2019-06-10T04:18:16.029Z,14.40
2019-06-10T04:20:47.018Z,14.50
2019-06-10T04:23:17.976Z,14.60
2019-06-10T04:25:50.055Z,14.50
2019-06-10T04:28:24.125Z,14.60
2019-06-10T04:30:53.721Z,14.50
2019-06-10T04:33:26.232Z,14.50
2019-06-10T04:35:58.371Z,14.50
2019-06-10T04:38:29.355Z,14.50
2019-06-10T04:41:00.346Z,14.50
2019-06-10T04:43:32.621Z,14.50
2019-06-10T04:46:03.876Z,14.60
2019-06-10T04:48:34.823Z,14.80
2019-06-10T04:51:05.826Z,14.90
2019-06-10T04:53:40.233Z,14.80
2019-06-10T04:56:09.523Z,14.90
2019-06-10T04:58:43.345Z,15.00
2019-06-10T05:01:13.753Z,15.20
2019-06-10T05:03:44.702Z,15.20
2019-06-10T05:06:15.679Z,15.40
2019-06-10T05:08:46.628Z,15.40
2019-06-10T05:11:17.613Z,15.60
2019-06-10T05:13:48.560Z,15.70
2019-06-10T05:16:19.599Z,15.90
2019-06-10T05:18:54.608Z,16.00
2019-06-10T05:21:27.568Z,16.00
2019-06-10T05:23:56.971Z,16.10
2019-06-10T05:26:28.911Z,16.30
2019-06-10T05:29:02.882Z,16.30
2019-06-10T05:31:35.081Z,16.50
2019-06-10T05:34:06.374Z,16.60
2019-06-10T05:36:37.350Z,16.70
2019-06-10T05:39:09.029Z,16.70
2019-06-10T05:41:40.009Z,16.80
2019-06-10T05:44:13.214Z,16.80
2019-06-10T05:46:43.793Z,17.10
2019-06-10T05:49:14.791Z,17.20
2019-06-10T05:51:45.759Z,17.50
2019-06-10T05:54:16.733Z,17.60
2019-06-10T05:56:47.692Z,17.70
2019-06-10T05:59:18.720Z,17.80
2019-06-10T06:01:49.690Z,17.70
2019-06-10T06:04:22.915Z,17.10
2019-06-10T06:06:53.326Z,16.70
2019-06-10T06:09:25.143Z,16.60
2019-06-10T06:11:56.187Z,16.70
2019-06-10T06:14:27.539Z,17.00
2019-06-10T06:16:58.504Z,17.00
2019-06-10T06:19:30.251Z,17.20
2019-06-10T06:22:02.341Z,17.50
2019-06-10T06:24:35.344Z,17.70
2019-06-10T06:27:06.208Z,17.80
2019-06-10T06:29:38.310Z,17.80
2019-06-10T06:32:09.304Z,17.80
2019-06-10T06:34:40.279Z,17.80
2019-06-10T06:37:12.721Z,17.80
2019-06-10T06:39:43.876Z,17.60
2019-06-10T06:42:14.893Z,17.40
2019-06-10T06:44:45.874Z,17.30
2019-06-10T06:47:16.813Z,17.40
2019-06-10T06:49:47.791Z,17.70
2019-06-10T06:52:34.672Z,17.80
2019-06-10T06:54:53.024Z,17.80
2019-06-10T06:57:24.123Z,18.00
2019-06-10T06:59:55.093Z,18.20
2019-06-10T07:02:26.236Z,18.50
2019-06-10T07:04:57.808Z,18.90
2019-06-10T07:07:30.172Z,19.20
2019-06-10T07:10:03.366Z,19.60
2019-06-10T07:12:37.845Z,20.00
2019-06-10T07:15:13.523Z,20.40
2019-06-10T07:17:45.573Z,20.50
2019-06-10T07:20:18.623Z,20.30
2019-06-10T07:22:49.561Z,20.30
2019-06-10T07:25:22.961Z,20.40
2019-06-10T07:27:54.054Z,20.70
2019-06-10T07:30:25.033Z,21.10
2019-06-10T07:32:55.986Z,21.30
2019-06-10T07:35:26.953Z,21.40
2019-06-10T07:37:57.968Z,21.60
2019-06-10T07:40:28.947Z,21.50
2019-06-10T07:43:02.228Z,21.50
2019-06-10T07:45:33.820Z,21.60
2019-06-10T07:48:05.131Z,21.70
2019-06-10T07:50:36.562Z,21.90
2019-06-10T07:53:08.717Z,22.10
2019-06-10T07:55:39.738Z,22.40
2019-06-10T07:58:12.848Z,22.70
2019-06-10T08:00:46.542Z,23.00
2019-06-10T08:03:16.004Z,23.10
2019-06-10T08:05:47.027Z,23.40
2019-06-10T08:08:18.067Z,23.40
2019-06-10T08:10:49.032Z,23.60
2019-06-10T08:13:19.972Z,23.70
2019-06-10T08:15:53.259Z,23.80
2019-06-10T08:18:24.407Z,23.80
2019-06-10T08:20:55.344Z,23.90
2019-06-10T08:23:26.350Z,23.60
2019-06-10T08:25:57.900Z,23.60
2019-06-10T08:28:29.071Z,23.20
2019-06-10T08:31:00.011Z,22.90
2019-06-10T08:33:33.094Z,23.00
2019-06-10T08:36:04.206Z,23.00
2019-06-10T08:38:36.351Z,23.10
2019-06-10T08:41:07.283Z,23.00
2019-06-10T08:43:38.583Z,22.80
2019-06-10T08:46:09.530Z,23.00
2019-06-10T08:48:41.779Z,23.20
2019-06-10T08:51:13.174Z,23.50
2019-06-10T08:53:46.922Z,23.70
2019-06-10T08:56:16.776Z,24.00
2019-06-10T08:58:49.707Z,24.40
2019-06-10T09:01:22.323Z,24.90
2019-06-10T09:03:53.864Z,25.10
2019-06-10T09:06:24.882Z,25.30
2019-06-10T09:08:57.012Z,25.30
2019-06-10T09:11:28.028Z,25.10
2019-06-10T09:13:58.994Z,25.00
2019-06-10T09:16:32.024Z,25.20
2019-06-10T09:19:02.601Z,25.50
2019-06-10T09:21:33.531Z,25.80
2019-06-10T09:24:04.547Z,25.80
2019-06-10T09:26:35.489Z,25.80
2019-06-10T09:29:06.459Z,25.70
2019-06-10T09:31:37.459Z,25.80
2019-06-10T09:34:08.439Z,25.60
2019-06-10T09:36:40.922Z,25.60
2019-06-10T09:39:13.080Z,25.70
2019-06-10T09:41:53.490Z,26.00
2019-06-10T09:44:17.041Z,26.00
2019-06-10T09:46:55.787Z,26.50
2019-06-10T09:49:26.232Z,27.50
2019-06-10T09:51:58.224Z,29.20
2019-06-10T09:54:29.194Z,30.40
2019-06-10T09:57:02.263Z,30.60
2019-06-10T09:59:32.727Z,31.70
2019-06-10T10:02:06.317Z,32.30
2019-06-10T10:04:38.780Z,32.90
2019-06-10T10:07:12.005Z,32.60
2019-06-10T10:09:47.018Z,31.70
2019-06-10T10:12:15.760Z,31.10
2019-06-10T10:14:48.502Z,30.90
2019-06-10T10:17:22.984Z,31.50
2019-06-10T10:19:56.869Z,32.70
2019-06-10T10:22:26.684Z,34.00
2019-06-10T10:24:57.652Z,34.60
2019-06-10T10:27:28.639Z,36.00
2019-06-10T10:29:59.599Z,37.00
2019-06-10T10:32:33.259Z,36.80
2019-06-10T10:35:04.092Z,36.50
2019-06-10T10:37:35.028Z,36.10
2019-06-10T10:40:07.001Z,35.90
2019-06-10T10:42:44.876Z,36.40
2019-06-10T10:45:13.061Z,36.80
2019-06-10T10:47:43.357Z,36.80
2019-06-10T10:50:14.932Z,36.30
2019-06-10T10:52:46.782Z,36.60
2019-06-10T10:55:18.792Z,37.80
2019-06-10T10:57:49.734Z,37.60
2019-06-10T11:00:24.185Z,38.10
2019-06-10T11:02:55.123Z,38.00
2019-06-10T11:05:38.568Z,37.30
2019-06-10T11:08:13.153Z,37.10
2019-06-10T11:10:44.455Z,36.50
2019-06-10T11:13:15.427Z,35.20
2019-06-10T11:15:47.334Z,34.20
2019-06-10T11:18:18.659Z,33.50
2019-06-10T11:20:49.972Z,33.30
2019-06-10T11:23:22.870Z,33.40
2019-06-10T11:25:56.927Z,32.40
2019-06-10T11:28:26.277Z,31.70
2019-06-10T11:30:58.624Z,30.70
2019-06-10T11:33:29.745Z,30.00
2019-06-10T11:36:02.924Z,29.70
2019-06-10T11:38:34.410Z,29.10
2019-06-10T11:41:05.390Z,28.60
2019-06-10T11:43:36.284Z,28.60
2019-06-10T11:46:07.909Z,28.60
2019-06-10T11:48:39.205Z,28.40
2019-06-10T11:51:12.731Z,28.80
2019-06-10T11:53:43.942Z,29.90
2019-06-10T11:56:15.195Z,30.10
2019-06-10T11:58:46.140Z,29.40
2019-06-10T12:01:17.114Z,29.40
2019-06-10T12:03:48.788Z,29.40
2019-06-10T12:06:19.722Z,29.30
2019-06-10T12:08:54.100Z,29.30
2019-06-10T12:11:23.337Z,29.70
2019-06-10T12:14:01.876Z,30.50
2019-06-10T12:17:41.048Z,30.90
2019-06-10T12:19:00.721Z,30.90
2019-06-10T12:21:33.052Z,30.50
2019-06-10T12:24:05.905Z,30.70
2019-06-10T12:26:36.913Z,30.90
2019-06-10T12:29:07.907Z,31.30
2019-06-10T12:31:38.847Z,31.60
2019-06-10T12:34:12.332Z,32.00
2019-06-10T12:36:42.483Z,31.50
2019-06-10T12:39:16.977Z,31.90
2019-06-10T12:41:46.195Z,32.70
2019-06-10T12:44:17.171Z,33.90
2019-06-10T12:46:48.107Z,34.00
2019-06-10T12:49:19.081Z,34.80
2019-06-10T12:51:52.470Z,35.70
2019-06-10T12:54:22.862Z,35.80
2019-06-10T12:56:55.283Z,35.50
2019-06-10T12:59:27.095Z,36.10
2019-06-10T13:02:01.894Z,36.30
2019-06-10T13:04:31.213Z,35.50
2019-06-10T13:07:05.651Z,35.10
2019-06-10T13:09:37.277Z,34.80
2019-06-10T13:12:12.945Z,34.50
2019-06-10T13:14:44.217Z,33.50
2019-06-10T13:17:15.161Z,33.00
2019-06-10T13:19:46.137Z,32.90
2019-06-10T13:22:17.079Z,33.00
2019-06-10T13:24:48.051Z,33.60
2019-06-10T13:27:19.001Z,34.30
2019-06-10T13:29:49.986Z,34.20
2019-06-10T13:32:20.949Z,34.40
2019-06-10T13:34:52.793Z,36.00
2019-06-10T13:37:23.797Z,36.50
2019-06-10T13:39:54.767Z,36.00
2019-06-10T13:42:25.714Z,36.60
2019-06-10T13:44:57.510Z,36.70
2019-06-10T13:47:28.813Z,36.50
2019-06-10T13:50:03.358Z,35.50
2019-06-10T13:52:32.477Z,35.30
2019-06-10T13:55:07.457Z,35.10
2019-06-10T13:57:36.646Z,35.50
2019-06-10T14:00:11.558Z,35.10
2019-06-10T14:02:43.981Z,35.00
2019-06-10T14:05:18.240Z,34.70
2019-06-10T14:07:47.969Z,34.80
2019-06-10T14:10:19.345Z,35.20
2019-06-10T14:12:52.513Z,35.20
2019-06-10T14:15:23.023Z,35.10
2019-06-10T14:17:54.115Z,35.10
2019-06-10T14:20:25.144Z,35.30
2019-06-10T14:22:56.090Z,35.60
2019-06-10T14:25:27.062Z,36.50
2019-06-10T14:27:57.999Z,36.90
2019-06-10T14:30:28.977Z,36.60
2019-06-10T14:33:02.355Z,36.70
2019-06-10T14:35:33.144Z,36.20
2019-06-10T14:38:05.158Z,35.90
2019-06-10T14:40:37.030Z,35.80
2019-06-10T14:43:08.271Z,35.60
2019-06-10T14:45:39.346Z,35.70
2019-06-10T14:48:11.497Z,35.70
2019-06-10T14:50:43.589Z,35.40
2019-06-10T14:53:16.791Z,35.30
2019-06-10T14:55:47.326Z,35.00
2019-06-10T14:58:19.447Z,35.40
2019-06-10T15:00:54.000Z,35.10
2019-06-10T15:03:23.281Z,35.10
2019-06-10T15:05:54.220Z,34.90
2019-06-10T15:08:25.194Z,35.60
2019-06-10T15:10:56.143Z,34.70
2019-06-10T15:13:27.110Z,33.10
2019-06-10T15:15:58.087Z,32.10
2019-06-10T15:18:29.117Z,31.00
2019-06-10T15:21:02.500Z,30.20
2019-06-10T15:23:32.725Z,29.70
2019-06-10T15:26:03.677Z,29.40
2019-06-10T15:28:34.644Z,29.20
2019-06-10T15:31:05.588Z,28.90
2019-06-10T15:33:36.562Z,28.50
2019-06-10T15:36:08.804Z,28.10
2019-06-10T15:38:40.072Z,27.70
2019-06-10T15:41:15.075Z,27.40
2019-06-10T15:43:43.735Z,27.20
2019-06-10T15:46:16.318Z,27.00
2019-06-10T15:48:47.339Z,27.10
2019-06-10T15:51:20.757Z,26.60
2019-06-10T15:53:50.968Z,24.90
2019-06-10T15:56:31.387Z,23.60
2019-06-10T15:58:54.579Z,21.80
2019-06-10T16:01:27.327Z,20.70
2019-06-10T16:03:58.197Z,20.10
2019-06-10T16:06:29.179Z,19.80
2019-06-10T16:09:00.148Z,19.30
2019-06-10T16:11:33.121Z,18.80
2019-06-10T16:14:07.508Z,18.60
2019-06-10T16:16:38.477Z,18.50
2019-06-10T16:19:09.472Z,18.40
2019-06-10T16:21:42.763Z,18.00
2019-06-10T16:24:15.052Z,17.50
2019-06-10T16:26:45.737Z,17.20
2019-06-10T16:29:17.080Z,17.10
2019-06-10T16:31:48.079Z,16.90
2019-06-10T16:34:19.699Z,16.90
2019-06-10T16:36:53.210Z,16.90
2019-06-10T16:39:26.815Z,17.00
2019-06-10T16:41:57.889Z,17.10
2019-06-10T16:44:28.874Z,17.10
2019-06-10T16:46:59.826Z,17.20
2019-06-10T16:49:32.731Z,17.20
2019-06-10T16:52:03.566Z,17.20
2019-06-10T16:54:34.550Z,17.30
2019-06-10T16:57:05.511Z,17.20
2019-06-10T16:59:36.513Z,17.10
2019-06-10T17:02:07.469Z,17.20
2019-06-10T17:04:38.464Z,17.10
2019-06-10T17:07:09.422Z,17.10
2019-06-10T17:09:42.164Z,17.00
2019-06-10T17:12:13.242Z,16.90
2019-06-10T17:14:44.230Z,16.90
2019-06-10T17:17:15.200Z,16.80
2019-06-10T17:19:46.183Z,16.90
2019-06-10T17:22:17.129Z,16.90
2019-06-10T17:24:48.120Z,16.80
2019-06-10T17:27:19.239Z,16.80
2019-06-10T17:29:51.992Z,16.90
2019-06-10T17:32:25.167Z,16.80
2019-06-10T17:34:55.761Z,16.80
2019-06-10T17:37:26.720Z,16.80
2019-06-10T17:39:57.705Z,16.90
2019-06-10T17:42:34.584Z,16.90
2019-06-10T17:45:02.918Z,16.90
2019-06-10T17:47:34.629Z,17.00
2019-06-10T17:50:07.936Z,17.00
2019-06-10T17:52:39.746Z,16.90
2019-06-10T17:55:12.614Z,17.10
2019-06-10T17:57:43.682Z,17.00
2019-06-10T18:00:15.156Z,16.80
2019-06-10T18:02:46.209Z,16.80
2019-06-10T18:05:17.317Z,16.70
2019-06-10T18:07:48.270Z,16.70
2019-06-10T18:10:22.407Z,16.70
2019-06-10T18:12:53.050Z,16.80
2019-06-10T18:15:24.133Z,16.70
2019-06-10T18:17:55.944Z,16.70
2019-06-10T18:20:27.189Z,16.60
2019-06-10T18:22:58.140Z,16.60
2019-06-10T18:25:30.707Z,16.50
2019-06-10T18:28:02.770Z,16.50
2019-06-10T18:30:36.403Z,16.40
2019-06-10T18:33:06.505Z,16.50
2019-06-10T18:35:37.679Z,16.50
2019-06-10T18:38:08.726Z,16.40
2019-06-10T18:40:42.998Z,16.20
2019-06-10T18:43:18.160Z,16.20
2019-06-10T18:45:48.026Z,16.10
2019-06-10T18:48:19.166Z,16.10
2019-06-10T18:50:52.563Z,16.00
2019-06-10T18:53:24.840Z,16.00
2019-06-10T18:55:56.115Z,15.90
2019-06-10T18:58:34.250Z,15.90
2019-06-10T19:01:07.896Z,16.00
2019-06-10T19:03:45.185Z,16.10
2019-06-10T19:06:22.949Z,16.00
2019-06-10T19:08:56.995Z,16.10
2019-06-10T19:11:29.036Z,16.10
2019-06-10T19:14:03.477Z,16.10
2019-06-10T19:16:42.792Z,16.10
2019-06-10T19:19:16.184Z,16.10
2019-06-10T19:22:04.583Z,16.10
2019-06-10T19:24:28.020Z,16.10
2019-06-10T19:27:02.872Z,15.90
2019-06-10T19:29:44.131Z,15.80
2019-06-10T19:32:13.854Z,15.80
2019-06-10T19:34:48.387Z,15.80
2019-06-10T19:37:22.148Z,15.70
2019-06-10T19:39:54.095Z,15.60
2019-06-10T19:42:28.366Z,15.50
2019-06-10T19:45:03.960Z,15.50
2019-06-10T19:47:36.330Z,15.50
2019-06-10T19:50:12.085Z,15.40
2019-06-10T19:52:45.284Z,15.50
2019-06-10T19:55:23.953Z,15.60
2019-06-10T19:58:03.662Z,15.50
2019-06-10T20:00:34.757Z,15.50
2019-06-10T20:03:10.248Z,15.40
2019-06-10T20:05:44.940Z,15.30
2019-06-10T20:08:14.837Z,15.30
2019-06-10T20:10:48.953Z,15.40
2019-06-10T20:13:26.323Z,15.40
2019-06-10T20:16:09.261Z,15.40
2019-06-10T20:18:42.632Z,15.40
2019-06-10T20:21:16.145Z,15.40
2019-06-10T20:23:47.834Z,15.40
2019-06-10T20:26:19.233Z,15.40
2019-06-10T20:28:55.426Z,15.40
2019-06-10T20:31:29.566Z,15.40
2019-06-10T20:34:02.817Z,15.40
2019-06-10T20:36:34.121Z,15.30
2019-06-10T20:39:11.524Z,15.20
2019-06-10T20:41:50.434Z,15.10
2019-06-10T20:44:18.665Z,15.00
2019-06-10T20:46:49.989Z,15.00
2019-06-10T20:49:22.805Z,15.00
2019-06-10T20:52:07.050Z,15.10
2019-06-10T20:54:27.153Z,15.10
2019-06-10T20:56:58.579Z,15.10
2019-06-10T20:59:29.803Z,15.00
2019-06-10T21:02:03.192Z,15.10
2019-06-10T21:04:41.710Z,15.00
2019-06-10T21:07:17.882Z,15.00
2019-06-10T21:09:54.547Z,14.90
2019-06-10T21:12:28.749Z,14.90
2019-06-10T21:15:02.352Z,14.90
2019-06-10T21:17:36.065Z,14.80
2019-06-10T21:20:13.717Z,14.80
2019-06-10T21:22:53.071Z,14.60
2019-06-10T21:25:29.423Z,14.50
2019-06-10T21:28:03.044Z,14.40
2019-06-10T21:30:41.430Z,14.30
2019-06-10T21:33:06.983Z,14.40
2019-06-10T21:35:44.076Z,14.50
2019-06-10T21:38:17.470Z,14.40
2019-06-10T21:40:49.765Z,14.50
2019-06-10T21:43:24.101Z,14.60
2019-06-10T21:45:57.565Z,14.50
2019-06-10T21:48:27.989Z,14.40
2019-06-10T21:50:59.700Z,14.40
2019-06-10T21:53:31.021Z,14.30
2019-06-10T21:56:06.380Z,14.20
2019-06-10T21:58:43.538Z,14.20
2019-06-10T22:01:23.820Z,14.20
2019-06-10T22:04:00.768Z,14.10
2019-06-10T22:06:36.428Z,14.30
2019-06-10T22:09:12.361Z,14.30
2019-06-10T22:11:45.930Z,14.50
2019-06-10T22:14:22.476Z,14.40
2019-06-10T22:16:56.681Z,14.50
2019-06-10T22:19:32.300Z,14.70
2019-06-10T22:22:03.571Z,14.70
2019-06-10T22:24:36.187Z,14.70
2019-06-10T22:27:07.362Z,14.80
2019-06-10T22:29:45.066Z,14.70
2019-06-10T22:32:16.230Z,14.60
2019-06-10T22:34:47.586Z,14.50
2019-06-10T22:37:23.710Z,14.30
2019-06-10T22:40:03.072Z,14.20
2019-06-10T22:42:34.100Z,14.20
2019-06-10T22:45:07.133Z,14.50
2019-06-10T22:47:42.661Z,14.50
2019-06-10T22:50:19.663Z,14.30
2019-06-10T22:52:57.047Z,14.30
2019-06-10T22:55:32.267Z,14.40
2019-06-10T22:58:06.258Z,14.60
2019-06-10T23:00:36.310Z,14.80
2019-06-10T23:03:13.068Z,14.70
2019-06-10T23:05:48.153Z,14.60
2019-06-10T23:08:19.424Z,14.50
2019-06-10T23:10:59.848Z,14.50
2019-06-10T23:13:43.607Z,14.60
2019-06-10T23:16:14.944Z,14.90
2019-06-10T23:18:45.954Z,14.90
2019-06-10T23:21:22.609Z,14.80
2019-06-10T23:23:55.456Z,15.00
2019-06-10T23:26:26.262Z,15.20
2019-06-10T23:28:58.694Z,15.20
2019-06-10T23:31:29.784Z,15.10
2019-06-10T23:34:02.432Z,15.10
2019-06-10T23:36:33.418Z,15.20
2019-06-10T23:39:05.079Z,15.10
2019-06-10T23:41:36.062Z,15.10
2019-06-10T23:44:07.018Z,15.20
2019-06-10T23:46:38.006Z,15.20
2019-06-10T23:49:08.955Z,15.20
2019-06-10T23:51:42.328Z,15.20
2019-06-10T23:54:13.406Z,15.20
2019-06-10T23:56:44.460Z,15.10
2019-06-10T23:59:15.411Z,15.00
